createdAt,value
2017-12-08T00:01:35.287Z,7.20
2017-12-08T00:04:10.332Z,7.20
2017-12-08T00:06:43.137Z,7.10
2017-12-08T00:09:18.949Z,7.20
2017-12-08T00:11:52.630Z,7.40
2017-12-08T00:14:30.012Z,7.10
2017-12-08T00:17:07.861Z,7.00
2017-12-08T00:19:48.540Z,7.00
2017-12-08T00:22:23.030Z,7.10
2017-12-08T00:25:02.008Z,6.90
2017-12-08T00:27:35.031Z,6.90
2017-12-08T00:30:09.648Z,6.90
2017-12-08T00:32:42.866Z,7.00
2017-12-08T00:35:18.033Z,7.10
2017-12-08T00:37:52.671Z,7.10
2017-12-08T00:40:35.906Z,7.10
2017-12-08T00:43:11.758Z,7.10
2017-12-08T00:45:46.064Z,7.20
2017-12-08T00:48:21.940Z,7.00
2017-12-08T00:50:57.958Z,7.40
2017-12-08T00:53:31.152Z,7.40
2017-12-08T00:56:04.740Z,7.50
2017-12-08T00:58:39.627Z,7.50
2017-12-08T01:01:14.506Z,7.40
2017-12-08T01:03:48.730Z,7.10
2017-12-08T01:06:22.692Z,7.10
2017-12-08T01:08:55.299Z,7.10
2017-12-08T01:11:32.597Z,7.10
2017-12-08T01:14:07.059Z,7.20
2017-12-08T01:16:43.476Z,7.00
2017-12-08T01:19:18.221Z,7.00
2017-12-08T01:22:04.505Z,6.90
2017-12-08T01:24:41.047Z,6.80
2017-12-08T01:27:16.104Z,6.80
2017-12-08T01:29:48.922Z,6.90
2017-12-08T01:32:20.868Z,6.80
2017-12-08T01:34:55.268Z,6.70
2017-12-08T01:37:31.012Z,6.70
2017-12-08T01:40:05.916Z,6.60
2017-12-08T01:42:39.219Z,6.60
2017-12-08T01:45:14.699Z,6.60
2017-12-08T01:47:48.078Z,6.50
2017-12-08T01:50:20.460Z,6.50
2017-12-08T01:52:52.828Z,6.50
2017-12-08T01:55:27.594Z,6.60
2017-12-08T01:58:19.268Z,6.50
2017-12-08T02:00:51.888Z,6.50
2017-12-08T02:03:25.358Z,6.40
2017-12-08T02:05:58.401Z,6.40
2017-12-08T02:08:31.734Z,6.40
2017-12-08T02:11:06.820Z,6.40
2017-12-08T02:13:39.533Z,6.40
2017-12-08T02:16:13.329Z,6.40
2017-12-08T02:18:47.611Z,6.40
2017-12-08T02:21:23.015Z,6.40
2017-12-08T02:23:59.181Z,6.50
2017-12-08T02:26:34.913Z,6.50
2017-12-08T02:29:09.770Z,6.50
2017-12-08T02:31:45.088Z,6.30
2017-12-08T02:34:21.103Z,6.50
2017-12-08T02:36:55.240Z,6.50
2017-12-08T02:39:27.744Z,6.50
2017-12-08T02:42:02.459Z,6.50
2017-12-08T02:44:37.546Z,6.40
2017-12-08T02:47:09.646Z,6.40
2017-12-08T02:49:43.527Z,6.30
2017-12-08T02:52:21.964Z,6.30
2017-12-08T02:54:58.631Z,6.30
2017-12-08T02:57:30.595Z,6.30
2017-12-08T03:00:03.972Z,6.20
2017-12-08T03:02:36.010Z,6.30
2017-12-08T03:05:10.753Z,6.40
2017-12-08T03:07:46.195Z,6.30
2017-12-08T03:10:21.634Z,6.30
2017-12-08T03:12:56.525Z,6.20
2017-12-08T03:15:28.937Z,6.20
2017-12-08T03:18:01.837Z,6.10
2017-12-08T03:20:35.840Z,6.10
2017-12-08T03:23:09.401Z,6.10
2017-12-08T03:25:44.071Z,6.00
2017-12-08T03:28:19.064Z,5.90
2017-12-08T03:30:53.098Z,6.00
2017-12-08T03:33:26.069Z,5.90
2017-12-08T03:36:00.646Z,6.00
2017-12-08T03:38:34.944Z,6.00
2017-12-08T03:41:11.419Z,6.10
2017-12-08T03:43:45.591Z,6.10
2017-12-08T03:46:23.294Z,6.10
2017-12-08T03:48:58.322Z,6.10
2017-12-08T03:51:39.367Z,6.10
2017-12-08T03:54:11.607Z,6.10
2017-12-08T03:56:44.043Z,6.00
2017-12-08T03:59:24.168Z,6.00
2017-12-08T04:01:57.795Z,5.90
2017-12-08T04:04:30.692Z,5.80
2017-12-08T04:07:04.341Z,5.90
2017-12-08T04:09:37.577Z,5.90
2017-12-08T04:12:11.906Z,4.50
2017-12-08T04:14:52.498Z,6.00
2017-12-08T04:17:28.289Z,6.10
2017-12-08T04:20:05.085Z,6.10
2017-12-08T04:22:39.322Z,6.20
2017-12-08T04:25:13.180Z,6.10
2017-12-08T04:27:45.563Z,6.20
2017-12-08T04:30:20.538Z,6.20
2017-12-08T04:32:55.256Z,6.20
2017-12-08T04:35:29.762Z,6.20
2017-12-08T04:38:15.303Z,6.20
2017-12-08T04:40:51.685Z,6.20
2017-12-08T04:43:27.163Z,6.30
2017-12-08T04:45:59.499Z,7.20
2017-12-08T04:48:38.038Z,6.30
2017-12-08T04:51:24.882Z,6.30
2017-12-08T04:53:58.849Z,6.30
2017-12-08T04:56:30.229Z,6.30
2017-12-08T04:59:06.191Z,6.40
2017-12-08T05:01:43.179Z,6.40
2017-12-08T05:04:20.105Z,6.30
2017-12-08T05:06:56.481Z,6.30
2017-12-08T05:09:31.140Z,6.20
2017-12-08T05:12:06.124Z,6.10
2017-12-08T05:14:41.453Z,6.10
2017-12-08T05:17:14.587Z,6.10
2017-12-08T05:19:55.896Z,5.90
2017-12-08T05:22:29.660Z,5.60
2017-12-08T05:25:03.461Z,5.60
2017-12-08T05:27:36.448Z,5.70
2017-12-08T05:30:13.865Z,5.80
2017-12-08T05:32:50.160Z,5.80
2017-12-08T05:35:29.613Z,5.50
2017-12-08T05:38:07.645Z,5.50
2017-12-08T05:43:30.269Z,5.60
2017-12-08T05:46:03.763Z,5.60
2017-12-08T05:48:38.755Z,5.50
2017-12-08T05:51:19.061Z,5.50
2017-12-08T05:53:55.457Z,5.20
2017-12-08T05:56:30.124Z,5.50
2017-12-08T05:59:08.194Z,5.50
2017-12-08T06:01:41.448Z,5.20
2017-12-08T06:04:16.268Z,5.40
2017-12-08T06:06:54.174Z,5.50
2017-12-08T06:09:31.459Z,5.50
2017-12-08T06:12:05.097Z,5.50
2017-12-08T06:14:41.519Z,5.60
2017-12-08T06:17:18.737Z,5.70
2017-12-08T06:19:59.380Z,5.70
2017-12-08T06:22:35.888Z,5.70
2017-12-08T06:25:13.417Z,5.70
2017-12-08T06:27:47.078Z,5.60
2017-12-08T06:30:21.720Z,5.60
2017-12-08T06:32:56.695Z,5.50
2017-12-08T06:35:32.059Z,5.40
2017-12-08T06:38:07.856Z,5.20
2017-12-08T06:40:44.870Z,5.10
2017-12-08T06:43:22.158Z,5.10
2017-12-08T06:45:59.698Z,5.10
2017-12-08T06:48:34.320Z,5.00
2017-12-08T06:51:07.800Z,4.90
2017-12-08T06:53:43.683Z,4.70
2017-12-08T06:56:19.983Z,4.60
2017-12-08T07:01:43.922Z,4.60
2017-12-08T07:04:25.072Z,4.50
2017-12-08T07:06:59.685Z,4.70
2017-12-08T07:09:43.950Z,4.60
2017-12-08T07:12:21.308Z,4.70
2017-12-08T07:14:55.808Z,4.70
2017-12-08T07:17:34.452Z,4.60
2017-12-08T07:20:14.333Z,4.70
2017-12-08T07:22:50.430Z,4.60
2017-12-08T07:25:26.396Z,4.70
2017-12-08T07:28:09.273Z,4.70
2017-12-08T07:30:44.080Z,4.50
2017-12-08T07:33:23.452Z,4.40
2017-12-08T07:36:02.216Z,4.50
2017-12-08T07:41:30.144Z,4.50
2017-12-08T07:44:08.069Z,4.50
2017-12-08T07:46:45.562Z,4.50
2017-12-08T07:49:22.800Z,4.50
2017-12-08T07:52:00.364Z,4.50
2017-12-08T07:54:35.266Z,4.60
2017-12-08T07:57:10.720Z,4.60
2017-12-08T07:59:45.973Z,4.60
2017-12-08T08:02:21.457Z,4.50
2017-12-08T08:05:06.852Z,4.60
2017-12-08T08:07:56.294Z,4.60
2017-12-08T08:10:35.711Z,4.60
2017-12-08T08:13:13.794Z,4.60
2017-12-08T08:15:49.220Z,5.50
2017-12-08T08:18:26.586Z,4.50
2017-12-08T08:23:45.450Z,4.60
2017-12-08T08:26:23.077Z,4.60
2017-12-08T08:29:00.707Z,4.60
2017-12-08T08:31:38.742Z,4.70
2017-12-08T08:34:16.788Z,4.60
2017-12-08T08:36:52.129Z,5.60
2017-12-08T08:39:27.355Z,4.70
2017-12-08T08:42:07.318Z,4.70
2017-12-08T08:44:43.756Z,4.80
2017-12-08T08:47:19.190Z,3.50
2017-12-08T08:49:58.129Z,4.90
2017-12-08T08:52:33.876Z,5.60
2017-12-08T08:55:08.212Z,5.00
2017-12-08T08:57:52.259Z,5.00
2017-12-08T09:00:27.360Z,5.10
2017-12-08T09:03:01.919Z,5.20
2017-12-08T09:05:37.778Z,5.20
2017-12-08T09:08:16.718Z,5.10
2017-12-08T09:10:52.633Z,5.00
2017-12-08T09:13:28.328Z,5.00
2017-12-08T09:16:03.595Z,5.00
2017-12-08T09:18:38.998Z,5.00
2017-12-08T09:21:15.461Z,5.10
2017-12-08T09:23:49.621Z,5.40
2017-12-08T09:26:21.395Z,5.40
2017-12-08T09:29:01.776Z,5.50
2017-12-08T09:31:36.656Z,5.50
2017-12-08T09:34:12.892Z,5.60
2017-12-08T09:36:48.030Z,5.70
2017-12-08T09:39:23.533Z,5.60
2017-12-08T09:41:58.585Z,5.70
2017-12-08T09:44:34.565Z,5.70
2017-12-08T09:47:14.142Z,5.60
2017-12-08T09:49:48.060Z,5.70
2017-12-08T09:52:35.791Z,5.80
2017-12-08T09:55:25.040Z,5.80
2017-12-08T09:58:00.684Z,5.80
2017-12-08T10:00:38.692Z,5.90
2017-12-08T10:05:23.611Z,6.00
2017-12-08T10:08:10.360Z,6.10
2017-12-08T10:10:51.904Z,5.70
2017-12-08T10:13:27.350Z,5.70
2017-12-08T10:16:01.396Z,5.40
2017-12-08T10:18:34.847Z,5.20
2017-12-08T10:21:10.005Z,5.10
2017-12-08T10:24:03.178Z,5.10
2017-12-08T10:26:42.806Z,5.00
2017-12-08T10:29:22.860Z,4.60
2017-12-08T10:32:02.296Z,4.60
2017-12-08T10:34:40.252Z,4.70
2017-12-08T10:37:17.357Z,4.60
2017-12-08T10:40:12.078Z,4.60
2017-12-08T10:43:13.502Z,4.60
2017-12-08T10:45:59.822Z,4.70
2017-12-08T10:48:40.868Z,4.80
2017-12-08T10:51:22.367Z,4.90
2017-12-08T10:54:02.010Z,5.00
2017-12-08T10:56:49.231Z,5.10
2017-12-08T10:59:28.136Z,5.10
2017-12-08T11:02:15.903Z,5.30
2017-12-08T11:07:53.979Z,5.50
2017-12-08T11:10:31.798Z,5.50
2017-12-08T11:13:20.187Z,5.60
2017-12-08T11:16:03.650Z,5.50
2017-12-08T11:18:47.140Z,5.80
2017-12-08T11:21:31.404Z,5.90
2017-12-08T11:24:07.690Z,5.90
2017-12-08T11:26:50.532Z,6.00
2017-12-08T11:29:31.380Z,5.90
2017-12-08T11:32:08.298Z,5.80
2017-12-08T11:34:49.667Z,5.90
2017-12-08T11:37:25.723Z,6.00
2017-12-08T11:40:03.099Z,6.00
2017-12-08T11:42:39.376Z,6.00
2017-12-08T11:45:21.250Z,6.00
2017-12-08T11:48:09.584Z,6.00
2017-12-08T11:50:54.278Z,6.00
2017-12-08T11:53:43.353Z,6.00
2017-12-08T11:56:22.547Z,6.10
2017-12-08T11:58:57.812Z,6.10
2017-12-08T12:01:39.632Z,6.10
2017-12-08T12:07:26.086Z,6.00
2017-12-08T12:10:05.251Z,5.50
2017-12-08T12:12:40.918Z,6.10
2017-12-08T12:15:15.001Z,6.10
2017-12-08T12:17:49.608Z,6.00
2017-12-08T12:20:24.635Z,6.00
2017-12-08T12:23:00.551Z,5.90
2017-12-08T12:25:36.839Z,6.00
2017-12-08T12:28:16.377Z,6.10
2017-12-08T12:33:38.532Z,6.30
2017-12-08T12:36:12.035Z,6.10
2017-12-08T12:38:46.639Z,6.00
2017-12-08T12:41:31.017Z,5.90
2017-12-08T12:44:04.507Z,5.80
2017-12-08T12:46:41.906Z,5.90
2017-12-08T12:49:19.334Z,5.90
2017-12-08T12:51:55.764Z,6.00
2017-12-08T12:54:31.284Z,6.00
2017-12-08T12:57:06.239Z,6.00
2017-12-08T12:59:45.864Z,6.10
2017-12-08T13:02:22.651Z,6.00
2017-12-08T13:04:58.880Z,6.10
2017-12-08T13:07:43.167Z,6.10
2017-12-08T13:10:28.423Z,6.10
2017-12-08T13:13:05.164Z,5.90
2017-12-08T13:15:45.259Z,5.60
2017-12-08T13:18:19.893Z,5.60
2017-12-08T13:20:59.214Z,5.80
2017-12-08T13:23:36.662Z,5.90
2017-12-08T13:26:13.189Z,5.90
2017-12-08T13:28:46.557Z,5.90
2017-12-08T13:31:26.091Z,5.60
2017-12-08T13:34:01.319Z,5.50
2017-12-08T13:36:33.551Z,5.40
2017-12-08T13:39:08.244Z,5.30
2017-12-08T13:41:46.919Z,5.10
2017-12-08T13:44:20.418Z,5.10
2017-12-08T13:46:59.780Z,5.10
2017-12-08T13:49:33.989Z,5.10
2017-12-08T13:52:10.133Z,5.10
2017-12-08T13:57:00.262Z,5.20
2017-12-08T13:59:36.538Z,5.10
2017-12-08T14:02:09.358Z,5.10
2017-12-08T14:04:44.766Z,4.80
2017-12-08T14:07:20.362Z,4.70
2017-12-08T14:09:55.539Z,4.90
2017-12-08T14:12:30.502Z,4.90
2017-12-08T14:15:06.088Z,5.00
2017-12-08T14:17:40.035Z,4.90
2017-12-08T14:20:18.587Z,5.00
2017-12-08T14:22:55.234Z,5.00
2017-12-08T14:25:28.410Z,4.80
2017-12-08T14:28:02.481Z,4.90
2017-12-08T14:30:34.344Z,4.90
2017-12-08T14:33:09.696Z,5.00
2017-12-08T14:35:43.293Z,4.60
2017-12-08T14:38:15.411Z,5.20
2017-12-08T14:40:48.741Z,4.70
2017-12-08T14:43:26.736Z,4.70
2017-12-08T14:46:01.966Z,4.80
2017-12-08T14:48:35.986Z,4.90
2017-12-08T14:51:10.042Z,4.90
2017-12-08T14:53:43.277Z,4.90
2017-12-08T14:56:17.330Z,4.90
2017-12-08T14:58:58.065Z,4.80
2017-12-08T15:01:36.551Z,4.70
2017-12-08T15:04:14.896Z,4.50
2017-12-08T15:06:47.771Z,4.50
2017-12-08T15:09:21.116Z,4.60
2017-12-08T15:11:54.898Z,4.40
2017-12-08T15:14:31.303Z,4.30
2017-12-08T15:17:19.364Z,4.30
2017-12-08T15:25:50.711Z,4.00
2017-12-08T15:28:26.099Z,4.00
2017-12-08T15:30:59.211Z,4.10
2017-12-08T15:33:35.157Z,4.10
2017-12-08T15:36:10.591Z,4.20
2017-12-08T15:38:44.632Z,4.20
2017-12-08T15:41:20.625Z,4.20
2017-12-08T15:44:00.272Z,4.20
2017-12-08T15:46:35.075Z,4.30
2017-12-08T15:49:07.678Z,4.40
2017-12-08T15:51:42.432Z,4.30
2017-12-08T15:54:18.027Z,4.20
2017-12-08T15:56:52.838Z,4.20
2017-12-08T15:59:28.972Z,4.20
2017-12-08T16:02:04.314Z,4.20
2017-12-08T16:04:39.050Z,4.00
2017-12-08T16:07:18.236Z,3.40
2017-12-08T16:09:51.284Z,3.10
2017-12-08T16:12:25.146Z,2.80
2017-12-08T16:14:59.290Z,2.80
2017-12-08T16:17:36.007Z,2.60
2017-12-08T16:20:10.510Z,2.60
2017-12-08T16:22:44.546Z,2.60
2017-12-08T16:25:19.192Z,2.70
2017-12-08T16:27:57.128Z,2.70
2017-12-08T16:30:36.148Z,1.40
2017-12-08T16:33:12.873Z,3.00
2017-12-08T16:35:45.515Z,3.10
2017-12-08T16:38:19.832Z,2.90
2017-12-08T16:40:55.926Z,2.70
2017-12-08T16:43:32.022Z,2.70
2017-12-08T16:46:10.579Z,2.80
2017-12-08T16:48:45.896Z,2.90
2017-12-08T16:51:20.645Z,2.90
2017-12-08T16:53:53.827Z,2.90
2017-12-08T16:59:10.439Z,3.20
2017-12-08T17:01:45.767Z,3.20
2017-12-08T17:04:20.962Z,3.20
2017-12-08T17:06:57.277Z,3.20
2017-12-08T17:09:30.309Z,3.30
2017-12-08T17:12:04.027Z,3.30
2017-12-08T17:14:43.718Z,3.20
2017-12-08T17:17:22.196Z,3.20
2017-12-08T17:19:55.967Z,3.10
2017-12-08T17:22:30.275Z,3.20
2017-12-08T17:25:04.716Z,3.10
2017-12-08T17:27:43.101Z,3.10
2017-12-08T17:30:19.176Z,3.00
2017-12-08T17:32:53.234Z,3.00
2017-12-08T17:35:28.117Z,2.90
2017-12-08T17:38:05.167Z,2.80
2017-12-08T17:40:43.610Z,2.80
2017-12-08T17:43:21.706Z,2.80
2017-12-08T17:46:01.142Z,2.70
2017-12-08T17:48:36.680Z,2.70
2017-12-08T17:51:12.633Z,2.70
2017-12-08T17:53:49.172Z,2.70
2017-12-08T17:56:30.790Z,2.70
2017-12-08T17:59:13.188Z,2.60
2017-12-08T18:01:50.599Z,2.60
2017-12-08T18:04:27.464Z,2.70
2017-12-08T18:07:03.919Z,2.70
2017-12-08T18:09:43.502Z,2.70
2017-12-08T18:12:18.429Z,2.70
2017-12-08T18:14:51.655Z,2.70
2017-12-08T18:17:29.482Z,2.70
2017-12-08T18:20:05.286Z,2.70
2017-12-08T18:22:39.058Z,2.70
2017-12-08T18:25:14.961Z,2.60
2017-12-08T18:27:48.209Z,2.60
2017-12-08T18:30:24.727Z,2.70
2017-12-08T18:33:09.528Z,2.70
2017-12-08T18:35:42.532Z,1.80
2017-12-08T18:38:18.640Z,1.50
2017-12-08T18:40:53.380Z,2.70
2017-12-08T18:43:25.894Z,2.70
2017-12-08T18:46:00.907Z,2.70
2017-12-08T18:48:36.143Z,2.80
2017-12-08T18:51:10.764Z,2.70
2017-12-08T18:53:49.742Z,2.80
2017-12-08T18:56:23.480Z,2.70
2017-12-08T18:59:04.997Z,2.60
2017-12-08T19:01:38.175Z,2.60
2017-12-08T19:04:14.381Z,3.80
2017-12-08T19:07:06.297Z,2.70
2017-12-08T19:09:48.936Z,4.30
2017-12-08T19:12:29.593Z,2.80
2017-12-08T19:15:05.392Z,2.90
2017-12-08T19:17:42.179Z,2.90
2017-12-08T19:20:21.319Z,2.90
2017-12-08T19:22:59.105Z,2.90
2017-12-08T19:25:43.021Z,3.00
2017-12-08T19:28:23.305Z,3.00
2017-12-08T19:30:59.349Z,3.00
2017-12-08T19:36:30.533Z,3.00
2017-12-08T19:39:09.986Z,3.00
2017-12-08T19:41:58.726Z,3.10
2017-12-08T19:44:34.613Z,3.20
2017-12-08T19:47:10.677Z,3.20
2017-12-08T19:49:47.319Z,3.20
2017-12-08T19:52:25.272Z,3.00
2017-12-08T19:55:01.363Z,2.80
2017-12-08T19:57:38.323Z,2.80
2017-12-08T20:00:25.377Z,2.80
2017-12-08T20:03:02.196Z,2.90
2017-12-08T20:05:37.850Z,2.90
2017-12-08T20:08:17.885Z,4.10
2017-12-08T20:10:55.551Z,3.00
2017-12-08T20:13:30.559Z,3.00
2017-12-08T20:16:06.994Z,3.50
2017-12-08T20:18:46.635Z,3.20
2017-12-08T20:21:21.659Z,3.20
2017-12-08T20:23:56.357Z,3.30
2017-12-08T20:26:33.380Z,3.30
2017-12-08T20:29:06.959Z,3.30
2017-12-08T20:31:40.444Z,3.30
2017-12-08T20:34:13.660Z,3.30
2017-12-08T20:36:46.327Z,3.20
2017-12-08T20:39:20.850Z,3.30
2017-12-08T20:41:57.175Z,3.20
2017-12-08T20:44:32.411Z,3.20
2017-12-08T20:47:06.814Z,3.20
2017-12-08T20:49:49.456Z,3.20
2017-12-08T20:52:25.298Z,3.10
2017-12-08T20:55:03.318Z,3.10
2017-12-08T20:57:44.901Z,3.20
2017-12-08T21:00:24.108Z,3.30
2017-12-08T21:02:56.501Z,3.30
2017-12-08T21:05:31.372Z,3.20
2017-12-08T21:08:09.840Z,3.30
2017-12-08T21:10:45.146Z,3.30
2017-12-08T21:13:20.366Z,3.40
2017-12-08T21:15:56.979Z,3.40
2017-12-08T21:18:32.102Z,3.40
2017-12-08T21:21:07.510Z,3.20
2017-12-08T21:23:41.646Z,3.10
2017-12-08T21:26:15.524Z,2.90
2017-12-08T21:28:50.041Z,1.30
2017-12-08T21:31:23.279Z,2.90
2017-12-08T21:33:59.445Z,2.90
2017-12-08T21:36:48.661Z,3.10
2017-12-08T21:39:23.939Z,3.00
2017-12-08T21:41:58.040Z,3.00
2017-12-08T21:44:31.190Z,3.00
2017-12-08T21:47:06.358Z,3.00
2017-12-08T21:49:40.478Z,3.10
2017-12-08T21:52:16.984Z,3.30
2017-12-08T21:54:54.727Z,3.30
2017-12-08T21:57:32.913Z,3.40
2017-12-08T22:00:23.663Z,3.30
2017-12-08T22:03:04.024Z,3.00
2017-12-08T22:05:43.038Z,3.10
2017-12-08T22:08:29.865Z,3.60
2017-12-08T22:11:03.117Z,3.00
2017-12-08T22:13:38.091Z,3.00
2017-12-08T22:16:14.698Z,3.20
2017-12-08T22:19:02.890Z,3.20
2017-12-08T22:22:37.114Z,3.20
2017-12-08T22:25:17.710Z,3.10
2017-12-08T22:27:50.699Z,3.10
2017-12-08T22:30:24.314Z,3.10
2017-12-08T22:32:57.969Z,2.90
2017-12-08T22:35:30.708Z,2.80
2017-12-08T22:38:04.403Z,2.80
2017-12-08T22:40:36.980Z,2.80
2017-12-08T22:43:09.207Z,2.90
2017-12-08T22:45:43.006Z,3.00
2017-12-08T22:48:16.410Z,3.00
2017-12-08T22:50:51.821Z,3.00
2017-12-08T22:53:27.407Z,3.00
2017-12-08T22:56:03.952Z,3.10
2017-12-08T22:58:52.943Z,2.40
2017-12-08T23:01:27.119Z,3.10
2017-12-08T23:04:01.381Z,3.10
2017-12-08T23:06:33.274Z,3.00
2017-12-08T23:09:06.199Z,3.00
2017-12-08T23:11:39.252Z,3.00
2017-12-08T23:14:15.609Z,3.00
2017-12-08T23:16:51.522Z,2.90
2017-12-08T23:19:29.063Z,2.90
2017-12-08T23:22:05.536Z,2.80
2017-12-08T23:24:39.970Z,2.90
2017-12-08T23:27:27.740Z,2.90
2017-12-08T23:31:04.679Z,2.80
2017-12-08T23:33:42.152Z,2.80
2017-12-08T23:36:15.357Z,2.70
2017-12-08T23:38:49.814Z,2.80
2017-12-08T23:41:27.865Z,2.80
2017-12-08T23:44:02.625Z,2.80
2017-12-08T23:46:36.759Z,2.70
2017-12-08T23:49:10.240Z,2.80
2017-12-08T23:51:43.754Z,2.90
2017-12-08T23:54:16.284Z,2.90
2017-12-08T23:56:52.790Z,3.00
2017-12-08T23:59:28.523Z,3.00
